sensor_id;sensor_type;location;lat;lon;timestamp;pressure;altitude;pressure_sealevel;temperature;humidity
13124;BME280;6627;50.920;12.050;2023-03-14T00:01:20;96970.34;;;19.28;56.69
13124;BME280;6627;50.920;12.050;2023-03-14T00:03:48;96976.06;;;19.62;55.29
13124;BME280;6627;50.920;12.050;2023-03-14T00:06:17;96958.34;;;19.70;54.60
13124;BME280;6627;50.920;12.050;2023-03-14T00:08:45;96884.22;;;19.07;54.82
13124;BME280;6627;50.920;12.050;2023-03-14T00:11:14;96831.41;;;18.23;56.97
13124;BME280;6627;50.920;12.050;2023-03-14T00:13:43;96785.41;;;17.64;57.13
13124;BME280;6627;50.920;12.050;2023-03-14T00:16:13;96924.13;;;19.26;55.76
13124;BME280;6627;50.920;12.050;2023-03-14T00:18:40;96870.00;;;18.57;55.85
13124;BME280;6627;50.920;12.050;2023-03-14T00:21:12;96820.56;;;17.87;56.85
13124;BME280;6627;50.920;12.050;2023-03-14T00:23:41;96874.47;;;18.22;56.99
13124;BME280;6627;50.920;12.050;2023-03-14T00:26:11;96914.16;;;18.87;56.17
13124;BME280;6627;50.920;12.050;2023-03-14T00:28:40;96856.13;;;18.05;57.27
13124;BME280;6627;50.920;12.050;2023-03-14T00:31:12;96924.34;;;18.90;55.77
13124;BME280;6627;50.920;12.050;2023-03-14T00:33:39;96905.50;;;18.93;55.48
13124;BME280;6627;50.920;12.050;2023-03-14T00:36:11;96855.66;;;18.28;56.79
13124;BME280;6627;50.920;12.050;2023-03-14T00:38:41;96815.84;;;18.02;56.40
13124;BME280;6627;50.920;12.050;2023-03-14T00:41:10;96908.00;;;19.32;54.89
13124;BME280;6627;50.920;12.050;2023-03-14T00:43:38;96898.78;;;19.01;55.32
13124;BME280;6627;50.920;12.050;2023-03-14T00:46:09;96768.88;;;18.03;54.51
13124;BME280;6627;50.920;12.050;2023-03-14T00:48:36;96839.09;;;18.49;55.63
13124;BME280;6627;50.920;12.050;2023-03-14T00:51:06;96887.50;;;18.92;55.21
13124;BME280;6627;50.920;12.050;2023-03-14T00:53:36;96949.00;;;19.57;54.47
13124;BME280;6627;50.920;12.050;2023-03-14T00:56:07;96950.75;;;19.29;54.50
13124;BME280;6627;50.920;12.050;2023-03-14T00:58:35;96819.75;;;18.01;55.22
13124;BME280;6627;50.920;12.050;2023-03-14T01:01:06;96827.97;;;18.01;55.57
13124;BME280;6627;50.920;12.050;2023-03-14T01:03:35;96855.03;;;17.77;57.18
13124;BME280;6627;50.920;12.050;2023-03-14T01:06:12;96881.53;;;18.20;56.41
13124;BME280;6627;50.920;12.050;2023-03-14T01:08:40;96835.09;;;17.77;56.38
13124;BME280;6627;50.920;12.050;2023-03-14T01:11:09;96874.38;;;18.44;55.31
13124;BME280;6627;50.920;12.050;2023-03-14T01:13:38;96872.50;;;18.19;55.45
13124;BME280;6627;50.920;12.050;2023-03-14T01:16:09;96922.06;;;18.71;55.80
13124;BME280;6627;50.920;12.050;2023-03-14T01:18:39;96878.38;;;18.18;55.74
13124;BME280;6627;50.920;12.050;2023-03-14T01:21:12;96860.41;;;18.09;55.79
13124;BME280;6627;50.920;12.050;2023-03-14T01:23:41;96911.09;;;18.71;55.03
13124;BME280;6627;50.920;12.050;2023-03-14T01:26:10;96939.69;;;18.70;55.64
13124;BME280;6627;50.920;12.050;2023-03-14T01:28:37;96913.53;;;18.40;55.55
13124;BME280;6627;50.920;12.050;2023-03-14T01:31:07;96918.94;;;18.69;54.71
13124;BME280;6627;50.920;12.050;2023-03-14T01:33:35;96984.41;;;19.40;53.92
13124;BME280;6627;50.920;12.050;2023-03-14T01:36:06;97004.63;;;19.68;52.72
13124;BME280;6627;50.920;12.050;2023-03-14T01:38:36;96919.59;;;18.95;53.08
13124;BME280;6627;50.920;12.050;2023-03-14T01:41:04;96868.84;;;18.54;53.70
13124;BME280;6627;50.920;12.050;2023-03-14T01:43:32;96887.06;;;18.97;52.50
13124;BME280;6627;50.920;12.050;2023-03-14T01:46:21;96881.69;;;18.75;53.68
13124;BME280;6627;50.920;12.050;2023-03-14T01:48:55;96992.47;;;20.14;51.58
13124;BME280;6627;50.920;12.050;2023-03-14T01:51:31;96866.22;;;19.03;52.58
13124;BME280;6627;50.920;12.050;2023-03-14T01:54:12;96881.00;;;19.23;51.96
13124;BME280;6627;50.920;12.050;2023-03-14T01:56:47;96870.13;;;19.09;52.04
13124;BME280;6627;50.920;12.050;2023-03-14T01:59:16;96879.06;;;19.16;51.95
13124;BME280;6627;50.920;12.050;2023-03-14T02:01:45;96888.69;;;19.42;51.34
13124;BME280;6627;50.920;12.050;2023-03-14T02:04:15;96802.97;;;18.72;51.83
13124;BME280;6627;50.920;12.050;2023-03-14T02:06:54;96866.09;;;19.24;51.32
13124;BME280;6627;50.920;12.050;2023-03-14T02:09:24;96816.28;;;18.66;52.36
13124;BME280;6627;50.920;12.050;2023-03-14T02:11:51;96826.47;;;18.66;52.19
13124;BME280;6627;50.920;12.050;2023-03-14T02:14:32;96811.88;;;18.90;51.69
13124;BME280;6627;50.920;12.050;2023-03-14T02:17:02;96877.19;;;19.58;51.05
13124;BME280;6627;50.920;12.050;2023-03-14T02:19:50;96862.19;;;19.22;51.44
13124;BME280;6627;50.920;12.050;2023-03-14T02:22:22;96820.78;;;19.02;51.67
13124;BME280;6627;50.920;12.050;2023-03-14T02:25:04;96828.09;;;19.19;50.78
13124;BME280;6627;50.920;12.050;2023-03-14T02:27:36;96741.63;;;18.45;51.87
13124;BME280;6627;50.920;12.050;2023-03-14T02:30:08;96749.06;;;18.48;51.91
13124;BME280;6627;50.920;12.050;2023-03-14T02:32:40;96815.81;;;19.34;50.88
13124;BME280;6627;50.920;12.050;2023-03-14T02:35:15;96774.78;;;19.20;50.18
13124;BME280;6627;50.920;12.050;2023-03-14T02:37:49;96753.16;;;18.81;50.46
13124;BME280;6627;50.920;12.050;2023-03-14T02:40:19;96668.53;;;18.27;51.27
13124;BME280;6627;50.920;12.050;2023-03-14T02:42:47;96783.03;;;19.16;50.66
13124;BME280;6627;50.920;12.050;2023-03-14T02:45:38;96755.09;;;18.84;50.71
13124;BME280;6627;50.920;12.050;2023-03-14T02:48:13;96777.44;;;19.31;49.73
13124;BME280;6627;50.920;12.050;2023-03-14T02:50:41;96716.84;;;18.59;50.70
13124;BME280;6627;50.920;12.050;2023-03-14T02:53:15;96669.50;;;18.03;51.42
13124;BME280;6627;50.920;12.050;2023-03-14T02:55:45;96799.66;;;19.44;49.84
13124;BME280;6627;50.920;12.050;2023-03-14T02:58:15;96702.75;;;18.60;49.96
13124;BME280;6627;50.920;12.050;2023-03-14T03:00:43;96778.00;;;19.08;49.75
13124;BME280;6627;50.920;12.050;2023-03-14T03:03:11;96743.88;;;18.60;50.45
13124;BME280;6627;50.920;12.050;2023-03-14T03:05:38;96797.16;;;19.15;49.94
13124;BME280;6627;50.920;12.050;2023-03-14T03:08:06;96763.63;;;18.93;49.64
13124;BME280;6627;50.920;12.050;2023-03-14T03:10:33;96727.50;;;18.50;50.33
13124;BME280;6627;50.920;12.050;2023-03-14T03:13:00;96770.16;;;19.10;49.78
13124;BME280;6627;50.920;12.050;2023-03-14T03:15:29;96845.19;;;19.82;49.50
13124;BME280;6627;50.920;12.050;2023-03-14T03:17:57;96747.19;;;18.89;50.17
13124;BME280;6627;50.920;12.050;2023-03-14T03:20:24;96764.69;;;19.48;48.76
13124;BME280;6627;50.920;12.050;2023-03-14T03:22:51;96696.41;;;18.74;50.21
13124;BME280;6627;50.920;12.050;2023-03-14T03:25:18;96738.16;;;19.37;49.26
13124;BME280;6627;50.920;12.050;2023-03-14T03:27:46;96783.59;;;19.83;48.93
13124;BME280;6627;50.920;12.050;2023-03-14T03:30:14;96674.19;;;19.03;48.88
13124;BME280;6627;50.920;12.050;2023-03-14T03:32:43;96718.47;;;19.42;49.16
13124;BME280;6627;50.920;12.050;2023-03-14T03:35:10;96715.09;;;19.65;48.12
13124;BME280;6627;50.920;12.050;2023-03-14T03:37:38;96678.44;;;19.11;49.17
13124;BME280;6627;50.920;12.050;2023-03-14T03:40:07;96692.59;;;19.44;48.09
13124;BME280;6627;50.920;12.050;2023-03-14T03:42:35;96663.91;;;19.14;48.65
13124;BME280;6627;50.920;12.050;2023-03-14T03:45:04;96588.53;;;18.47;49.08
13124;BME280;6627;50.920;12.050;2023-03-14T03:47:31;96634.31;;;18.95;49.06
13124;BME280;6627;50.920;12.050;2023-03-14T03:50:00;96617.94;;;18.87;48.53
13124;BME280;6627;50.920;12.050;2023-03-14T03:52:27;96661.25;;;19.03;48.78
13124;BME280;6627;50.920;12.050;2023-03-14T03:54:54;96703.19;;;19.41;48.45
13124;BME280;6627;50.920;12.050;2023-03-14T03:57:22;96708.25;;;19.47;48.19
13124;BME280;6627;50.920;12.050;2023-03-14T03:59:49;96619.03;;;18.52;49.20
13124;BME280;6627;50.920;12.050;2023-03-14T04:02:16;96654.19;;;18.61;49.47
13124;BME280;6627;50.920;12.050;2023-03-14T04:04:43;96710.25;;;19.42;48.01
13124;BME280;6627;50.920;12.050;2023-03-14T04:07:12;96618.41;;;18.79;48.42
13124;BME280;6627;50.920;12.050;2023-03-14T04:09:39;96673.63;;;19.22;48.17
13124;BME280;6627;50.920;12.050;2023-03-14T04:12:07;96646.72;;;19.06;48.33
13124;BME280;6627;50.920;12.050;2023-03-14T04:14:34;96605.31;;;18.52;48.54
13124;BME280;6627;50.920;12.050;2023-03-14T04:17:01;96633.44;;;19.05;47.52
13124;BME280;6627;50.920;12.050;2023-03-14T04:19:28;96642.16;;;18.93;48.89
13124;BME280;6627;50.920;12.050;2023-03-14T04:21:55;96715.81;;;19.73;47.93
13124;BME280;6627;50.920;12.050;2023-03-14T04:24:24;96636.38;;;19.21;47.54
13124;BME280;6627;50.920;12.050;2023-03-14T04:26:51;96586.00;;;18.63;48.30
13124;BME280;6627;50.920;12.050;2023-03-14T04:29:19;96572.56;;;18.79;47.83
13124;BME280;6627;50.920;12.050;2023-03-14T04:31:47;96652.00;;;19.28;47.82
13124;BME280;6627;50.920;12.050;2023-03-14T04:34:14;96592.75;;;18.96;47.90
13124;BME280;6627;50.920;12.050;2023-03-14T04:36:41;96549.81;;;18.82;47.55
13124;BME280;6627;50.920;12.050;2023-03-14T04:39:08;96559.81;;;18.58;48.71
13124;BME280;6627;50.920;12.050;2023-03-14T04:41:37;96612.88;;;19.20;47.68
13124;BME280;6627;50.920;12.050;2023-03-14T04:44:04;96604.31;;;19.14;48.19
13124;BME280;6627;50.920;12.050;2023-03-14T04:46:31;96643.78;;;19.62;47.34
13124;BME280;6627;50.920;12.050;2023-03-14T04:48:58;96614.16;;;19.42;47.09
13124;BME280;6627;50.920;12.050;2023-03-14T04:51:25;96526.59;;;18.53;48.25
13124;BME280;6627;50.920;12.050;2023-03-14T04:53:53;96553.94;;;18.60;48.69
13124;BME280;6627;50.920;12.050;2023-03-14T04:56:21;96524.00;;;18.38;48.51
13124;BME280;6627;50.920;12.050;2023-03-14T04:58:50;96561.72;;;18.65;48.58
13124;BME280;6627;50.920;12.050;2023-03-14T05:01:17;96569.13;;;18.68;48.08
13124;BME280;6627;50.920;12.050;2023-03-14T05:03:45;96584.59;;;18.89;47.94
13124;BME280;6627;50.920;12.050;2023-03-14T05:06:12;96580.88;;;19.06;47.33
13124;BME280;6627;50.920;12.050;2023-03-14T05:08:40;96579.59;;;18.80;48.39
13124;BME280;6627;50.920;12.050;2023-03-14T05:11:09;96401.44;;;17.63;48.13
13124;BME280;6627;50.920;12.050;2023-03-14T05:13:37;96616.91;;;19.42;47.09
13124;BME280;6627;50.920;12.050;2023-03-14T05:16:08;96559.88;;;18.93;47.41
13124;BME280;6627;50.920;12.050;2023-03-14T05:18:36;96562.56;;;19.00;47.21
13124;BME280;6627;50.920;12.050;2023-03-14T05:21:04;96483.56;;;18.50;47.74
13124;BME280;6627;50.920;12.050;2023-03-14T05:23:31;96552.59;;;19.13;46.55
13124;BME280;6627;50.920;12.050;2023-03-14T05:25:58;96693.84;;;20.04;46.41
13124;BME280;6627;50.920;12.050;2023-03-14T05:28:26;96647.59;;;19.68;47.02
13124;BME280;6627;50.920;12.050;2023-03-14T05:30:53;96650.50;;;19.88;46.32
13124;BME280;6627;50.920;12.050;2023-03-14T05:33:21;96573.25;;;19.21;46.81
13124;BME280;6627;50.920;12.050;2023-03-14T05:35:48;96541.78;;;18.99;47.50
13124;BME280;6627;50.920;12.050;2023-03-14T05:38:15;96533.19;;;18.97;47.34
13124;BME280;6627;50.920;12.050;2023-03-14T05:40:44;96651.47;;;20.28;45.43
13124;BME280;6627;50.920;12.050;2023-03-14T05:43:12;96505.28;;;18.67;47.77
13124;BME280;6627;50.920;12.050;2023-03-14T05:45:39;96491.59;;;18.30;48.30
13124;BME280;6627;50.920;12.050;2023-03-14T05:48:07;96549.81;;;18.82;48.07
13124;BME280;6627;50.920;12.050;2023-03-14T05:50:35;96480.41;;;18.51;47.41
13124;BME280;6627;50.920;12.050;2023-03-14T05:53:03;96686.59;;;19.86;47.31
13124;BME280;6627;50.920;12.050;2023-03-14T05:55:30;96543.06;;;19.21;46.49
13124;BME280;6627;50.920;12.050;2023-03-14T05:57:57;96630.97;;;19.79;46.50
13124;BME280;6627;50.920;12.050;2023-03-14T06:00:26;96675.19;;;20.46;45.05
13124;BME280;6627;50.920;12.050;2023-03-14T06:02:53;96592.34;;;19.66;45.91
13124;BME280;6627;50.920;12.050;2023-03-14T06:05:21;96538.78;;;19.20;46.69
13124;BME280;6627;50.920;12.050;2023-03-14T06:07:50;96541.94;;;18.84;47.59
13124;BME280;6627;50.920;12.050;2023-03-14T06:10:17;96611.44;;;19.73;46.54
13124;BME280;6627;50.920;12.050;2023-03-14T06:12:44;96542.78;;;19.12;47.36
13124;BME280;6627;50.920;12.050;2023-03-14T06:15:11;96631.13;;;19.68;47.26
13124;BME280;6627;50.920;12.050;2023-03-14T06:17:38;96529.06;;;19.12;46.84
13124;BME280;6627;50.920;12.050;2023-03-14T06:20:06;96654.91;;;20.09;46.06
13124;BME280;6627;50.920;12.050;2023-03-14T06:22:34;96532.50;;;18.89;47.06
13124;BME280;6627;50.920;12.050;2023-03-14T06:25:03;96519.94;;;18.92;46.88
13124;BME280;6627;50.920;12.050;2023-03-14T06:27:30;96522.84;;;19.08;46.35
13124;BME280;6627;50.920;12.050;2023-03-14T06:29:57;96502.63;;;18.95;46.46
13124;BME280;6627;50.920;12.050;2023-03-14T06:32:25;96519.41;;;19.04;46.29
13124;BME280;6627;50.920;12.050;2023-03-14T06:34:52;96554.97;;;19.11;46.68
13124;BME280;6627;50.920;12.050;2023-03-14T06:37:20;96562.88;;;19.36;46.01
13124;BME280;6627;50.920;12.050;2023-03-14T06:39:47;96585.09;;;19.49;46.08
13124;BME280;6627;50.920;12.050;2023-03-14T06:42:15;96486.50;;;18.66;46.56
13124;BME280;6627;50.920;12.050;2023-03-14T06:44:42;96558.25;;;19.29;46.15
13124;BME280;6627;50.920;12.050;2023-03-14T06:47:10;96594.16;;;19.76;45.25
13124;BME280;6627;50.920;12.050;2023-03-14T06:49:37;96436.66;;;18.40;46.26
13124;BME280;6627;50.920;12.050;2023-03-14T06:52:04;96530.28;;;19.11;46.28
13124;BME280;6627;50.920;12.050;2023-03-14T06:54:32;96519.75;;;19.06;45.98
13124;BME280;6627;50.920;12.050;2023-03-14T06:56:59;96518.84;;;19.16;45.87
13124;BME280;6627;50.920;12.050;2023-03-14T06:59:27;96563.84;;;19.53;45.54
13124;BME280;6627;50.920;12.050;2023-03-14T07:01:55;96592.38;;;19.89;44.99
13124;BME280;6627;50.920;12.050;2023-03-14T07:04:22;96651.53;;;20.75;43.08
13124;BME280;6627;50.920;12.050;2023-03-14T07:06:49;96583.44;;;20.09;44.79
13124;BME280;6627;50.920;12.050;2023-03-14T07:09:17;96563.72;;;20.14;44.42
13124;BME280;6627;50.920;12.050;2023-03-14T07:11:44;96500.75;;;19.49;45.02
13124;BME280;6627;50.920;12.050;2023-03-14T07:14:11;96563.38;;;19.88;45.37
13124;BME280;6627;50.920;12.050;2023-03-14T07:16:43;96520.47;;;19.40;45.63
13124;BME280;6627;50.920;12.050;2023-03-14T07:19:11;96592.22;;;20.00;45.67
13124;BME280;6627;50.920;12.050;2023-03-14T07:21:38;96625.31;;;20.44;44.78
13124;BME280;6627;50.920;12.050;2023-03-14T07:24:06;96608.44;;;20.18;44.58
13124;BME280;6627;50.920;12.050;2023-03-14T07:26:33;96572.59;;;20.02;44.47
13124;BME280;6627;50.920;12.050;2023-03-14T07:29:01;96598.63;;;20.17;44.27
13124;BME280;6627;50.920;12.050;2023-03-14T07:31:30;96515.59;;;19.52;45.34
13124;BME280;6627;50.920;12.050;2023-03-14T07:34:05;96597.81;;;20.44;44.13
13124;BME280;6627;50.920;12.050;2023-03-14T07:36:32;96565.25;;;19.91;44.34
13124;BME280;6627;50.920;12.050;2023-03-14T07:38:59;96525.19;;;19.71;44.37
13124;BME280;6627;50.920;12.050;2023-03-14T07:41:26;96702.72;;;21.39;42.49
13124;BME280;6627;50.920;12.050;2023-03-14T07:43:54;96649.97;;;20.74;43.06
13124;BME280;6627;50.920;12.050;2023-03-14T07:46:21;96487.41;;;19.48;44.80
13124;BME280;6627;50.920;12.050;2023-03-14T07:48:48;96446.09;;;19.04;45.42
13124;BME280;6627;50.920;12.050;2023-03-14T07:51:17;96580.00;;;20.28;44.28
13124;BME280;6627;50.920;12.050;2023-03-14T07:53:44;96551.28;;;20.33;43.55
13124;BME280;6627;50.920;12.050;2023-03-14T07:56:12;96600.13;;;20.49;44.00
13124;BME280;6627;50.920;12.050;2023-03-14T07:58:39;96674.81;;;21.37;42.38
13124;BME280;6627;50.920;12.050;2023-03-14T08:01:06;96596.03;;;20.57;43.41
13124;BME280;6627;50.920;12.050;2023-03-14T08:03:33;96547.38;;;20.30;43.25
13124;BME280;6627;50.920;12.050;2023-03-14T08:06:00;96641.34;;;20.96;43.29
13124;BME280;6627;50.920;12.050;2023-03-14T08:08:29;96594.06;;;20.81;42.27
13124;BME280;6627;50.920;12.050;2023-03-14T08:10:56;96425.22;;;19.37;44.16
13124;BME280;6627;50.920;12.050;2023-03-14T08:13:29;96605.25;;;20.70;43.33
13124;BME280;6627;50.920;12.050;2023-03-14T08:15:56;96435.81;;;19.66;43.66
13124;BME280;6627;50.920;12.050;2023-03-14T08:18:23;96432.38;;;19.58;43.83
13124;BME280;6627;50.920;12.050;2023-03-14T08:20:50;96466.59;;;19.77;43.73
13124;BME280;6627;50.920;12.050;2023-03-14T08:23:17;96543.31;;;20.15;44.11
13124;BME280;6627;50.920;12.050;2023-03-14T08:25:49;96541.53;;;20.52;42.84
13124;BME280;6627;50.920;12.050;2023-03-14T08:28:16;96636.25;;;21.37;42.37
13124;BME280;6627;50.920;12.050;2023-03-14T08:30:44;96489.06;;;20.19;43.00
13124;BME280;6627;50.920;12.050;2023-03-14T08:33:11;96528.84;;;20.34;43.07
13124;BME280;6627;50.920;12.050;2023-03-14T08:35:39;96532.09;;;20.29;43.20
13124;BME280;6627;50.920;12.050;2023-03-14T08:38:06;96511.09;;;19.92;43.94
13124;BME280;6627;50.920;12.050;2023-03-14T08:40:33;96547.25;;;20.37;43.81
13124;BME280;6627;50.920;12.050;2023-03-14T08:43:01;96548.97;;;20.55;43.02
13124;BME280;6627;50.920;12.050;2023-03-14T08:45:28;96518.34;;;20.29;43.07
13124;BME280;6627;50.920;12.050;2023-03-14T08:47:57;96630.66;;;21.21;42.11
13124;BME280;6627;50.920;12.050;2023-03-14T08:50:25;96541.63;;;20.45;42.70
13124;BME280;6627;50.920;12.050;2023-03-14T08:52:52;96627.59;;;20.96;42.71
13124;BME280;6627;50.920;12.050;2023-03-14T08:55:19;96501.00;;;20.32;42.27
13124;BME280;6627;50.920;12.050;2023-03-14T08:57:46;96611.09;;;20.96;42.56
13124;BME280;6627;50.920;12.050;2023-03-14T09:00:17;96598.25;;;21.09;41.84
13124;BME280;6627;50.920;12.050;2023-03-14T09:02:44;96469.72;;;19.79;43.79
13124;BME280;6627;50.920;12.050;2023-03-14T09:05:12;96671.91;;;21.45;42.50
13124;BME280;6627;50.920;12.050;2023-03-14T09:07:41;96595.13;;;21.07;42.26
13124;BME280;6627;50.920;12.050;2023-03-14T09:10:10;96490.63;;;20.20;42.83
13124;BME280;6627;50.920;12.050;2023-03-14T09:12:37;96581.50;;;20.80;42.45
13124;BME280;6627;50.920;12.050;2023-03-14T09:15:05;96531.25;;;20.32;42.97
13124;BME280;6627;50.920;12.050;2023-03-14T09:17:34;96569.06;;;20.72;42.84
13124;BME280;6627;50.920;12.050;2023-03-14T09:20:02;96616.72;;;21.28;42.01
13124;BME280;6627;50.920;12.050;2023-03-14T09:22:33;96496.63;;;20.78;41.09
13124;BME280;6627;50.920;12.050;2023-03-14T09:25:02;96550.66;;;20.88;42.14
13124;BME280;6627;50.920;12.050;2023-03-14T09:27:29;96503.31;;;20.57;42.16
13124;BME280;6627;50.920;12.050;2023-03-14T09:29:56;96534.56;;;20.67;42.22
13124;BME280;6627;50.920;12.050;2023-03-14T09:32:23;96563.47;;;20.99;41.83
13124;BME280;6627;50.920;12.050;2023-03-14T09:34:52;96559.00;;;21.05;41.70
13124;BME280;6627;50.920;12.050;2023-03-14T09:37:19;96571.50;;;20.89;42.88
13124;BME280;6627;50.920;12.050;2023-03-14T09:39:46;96701.75;;;22.06;41.17
13124;BME280;6627;50.920;12.050;2023-03-14T09:42:18;96609.59;;;21.71;40.61
13124;BME280;6627;50.920;12.050;2023-03-14T09:44:55;96698.88;;;22.13;40.85
13124;BME280;6627;50.920;12.050;2023-03-14T09:47:24;96490.13;;;20.88;41.34
13124;BME280;6627;50.920;12.050;2023-03-14T09:49:53;96501.56;;;21.07;41.41
13124;BME280;6627;50.920;12.050;2023-03-14T09:52:26;96519.72;;;21.04;41.28
13124;BME280;6627;50.920;12.050;2023-03-14T09:54:58;96616.28;;;21.89;40.30
13124;BME280;6627;50.920;12.050;2023-03-14T09:57:32;96552.94;;;21.33;40.93
13124;BME280;6627;50.920;12.050;2023-03-14T10:00:05;96591.44;;;21.73;40.53
13124;BME280;6627;50.920;12.050;2023-03-14T10:02:40;96590.19;;;21.58;41.63
13124;BME280;6627;50.920;12.050;2023-03-14T10:05:17;96532.06;;;21.36;40.79
13124;BME280;6627;50.920;12.050;2023-03-14T10:07:44;96477.34;;;21.18;40.49
13124;BME280;6627;50.920;12.050;2023-03-14T10:10:16;96521.72;;;21.20;41.17
13124;BME280;6627;50.920;12.050;2023-03-14T10:12:48;96450.28;;;20.57;41.54
13124;BME280;6627;50.920;12.050;2023-03-14T10:15:26;96472.69;;;21.15;40.16
13124;BME280;6627;50.920;12.050;2023-03-14T10:17:54;96485.22;;;21.00;40.75
13124;BME280;6627;50.920;12.050;2023-03-14T10:20:33;96457.66;;;20.63;41.57
13124;BME280;6627;50.920;12.050;2023-03-14T10:23:04;96355.38;;;19.89;42.17
13124;BME280;6627;50.920;12.050;2023-03-14T10:25:35;96492.97;;;20.65;42.25
13124;BME280;6627;50.920;12.050;2023-03-14T10:28:04;96474.03;;;20.47;42.75
13124;BME280;6627;50.920;12.050;2023-03-14T10:30:44;96511.59;;;20.77;42.14
13124;BME280;6627;50.920;12.050;2023-03-14T10:33:21;96521.53;;;20.91;41.57
13124;BME280;6627;50.920;12.050;2023-03-14T10:35:55;96485.06;;;20.67;41.39
13124;BME280;6627;50.920;12.050;2023-03-14T10:38:25;96357.34;;;19.65;42.55
13124;BME280;6627;50.920;12.050;2023-03-14T10:40:55;96498.50;;;20.18;43.07
13124;BME280;6627;50.920;12.050;2023-03-14T10:43:25;96630.75;;;21.37;41.96
13124;BME280;6627;50.920;12.050;2023-03-14T10:45:55;96473.00;;;20.17;42.62
13124;BME280;6627;50.920;12.050;2023-03-14T10:48:32;96644.28;;;21.28;42.14
13124;BME280;6627;50.920;12.050;2023-03-14T10:51:06;96508.47;;;20.32;42.79
13124;BME280;6627;50.920;12.050;2023-03-14T10:53:41;96384.63;;;19.52;43.74
13124;BME280;6627;50.920;12.050;2023-03-14T10:56:12;96640.75;;;21.08;42.49
13124;BME280;6627;50.920;12.050;2023-03-14T10:58:44;96562.16;;;20.83;42.05
13124;BME280;6627;50.920;12.050;2023-03-14T11:01:37;96521.66;;;20.40;43.66
13124;BME280;6627;50.920;12.050;2023-03-14T11:04:21;96535.06;;;20.38;43.62
13124;BME280;6627;50.920;12.050;2023-03-14T11:06:59;96577.63;;;20.77;43.28
13124;BME280;6627;50.920;12.050;2023-03-14T11:09:38;96566.09;;;20.62;43.48
13124;BME280;6627;50.920;12.050;2023-03-14T11:12:26;96520.56;;;20.14;44.12
13124;BME280;6627;50.920;12.050;2023-03-14T11:15:02;96496.00;;;19.80;44.92
13124;BME280;6627;50.920;12.050;2023-03-14T11:17:43;96608.94;;;20.36;45.19
13124;BME280;6627;50.920;12.050;2023-03-14T11:20:38;96463.09;;;19.23;46.36
13124;BME280;6627;50.920;12.050;2023-03-14T11:23:17;96598.13;;;19.99;45.94
13124;BME280;6627;50.920;12.050;2023-03-14T11:25:54;96723.06;;;21.22;44.12
13124;BME280;6627;50.920;12.050;2023-03-14T11:28:30;96594.44;;;20.09;45.56
13124;BME280;6627;50.920;12.050;2023-03-14T11:31:10;96465.56;;;19.13;46.10
13124;BME280;6627;50.920;12.050;2023-03-14T11:33:47;96597.91;;;20.13;45.51
13124;BME280;6627;50.920;12.050;2023-03-14T11:36:21;96597.81;;;20.44;44.66
13124;BME280;6627;50.920;12.050;2023-03-14T11:38:56;96624.28;;;20.61;44.37
13124;BME280;6627;50.920;12.050;2023-03-14T11:41:30;96546.03;;;19.91;45.00
13124;BME280;6627;50.920;12.050;2023-03-14T11:44:04;96672.06;;;21.14;43.46
13124;BME280;6627;50.920;12.050;2023-03-14T11:46:42;96619.84;;;20.67;44.17
13124;BME280;6627;50.920;12.050;2023-03-14T11:49:27;96667.31;;;21.58;42.31
13124;BME280;6627;50.920;12.050;2023-03-14T11:52:01;96685.81;;;21.77;42.01
13124;BME280;6627;50.920;12.050;2023-03-14T11:54:39;96486.59;;;20.48;43.07
13124;BME280;6627;50.920;12.050;2023-03-14T11:57:14;96667.19;;;21.65;42.35
13124;BME280;6627;50.920;12.050;2023-03-14T11:59:50;96619.94;;;21.47;42.32
13124;BME280;6627;50.920;12.050;2023-03-14T12:02:27;96573.03;;;21.10;42.77
13124;BME280;6627;50.920;12.050;2023-03-14T12:05:30;96529.53;;;20.85;42.74
13124;BME280;6627;50.920;12.050;2023-03-14T12:08:22;96499.25;;;20.65;42.48
13124;BME280;6627;50.920;12.050;2023-03-14T12:11:01;96600.94;;;21.32;42.02
13124;BME280;6627;50.920;12.050;2023-03-14T12:13:36;96629.03;;;21.83;41.27
13124;BME280;6627;50.920;12.050;2023-03-14T12:16:25;96584.69;;;21.38;41.68
13124;BME280;6627;50.920;12.050;2023-03-14T12:18:53;96512.84;;;20.92;41.68
13124;BME280;6627;50.920;12.050;2023-03-14T12:21:22;96598.09;;;21.56;41.61
13124;BME280;6627;50.920;12.050;2023-03-14T12:23:52;96536.69;;;21.19;41.47
13124;BME280;6627;50.920;12.050;2023-03-14T12:26:24;96547.38;;;21.17;41.98
13124;BME280;6627;50.920;12.050;2023-03-14T12:29:13;96546.78;;;21.26;41.86
13124;BME280;6627;50.920;12.050;2023-03-14T12:31:45;96574.81;;;21.40;41.60
13124;BME280;6627;50.920;12.050;2023-03-14T12:34:31;96696.38;;;22.71;39.94
13124;BME280;6627;50.920;12.050;2023-03-14T12:37:17;96606.34;;;22.12;40.84
13124;BME280;6627;50.920;12.050;2023-03-14T12:39:59;96515.47;;;21.56;40.33
13124;BME280;6627;50.920;12.050;2023-03-14T12:42:51;96485.88;;;21.44;40.64
13124;BME280;6627;50.920;12.050;2023-03-14T12:45:28;96565.59;;;21.67;41.06
13124;BME280;6627;50.920;12.050;2023-03-14T12:48:09;96682.38;;;22.62;40.14
13124;BME280;6627;50.920;12.050;2023-03-14T12:50:43;96524.47;;;21.76;40.50
13124;BME280;6627;50.920;12.050;2023-03-14T12:53:43;96532.00;;;21.56;41.36
13124;BME280;6627;50.920;12.050;2023-03-14T12:56:24;96496.25;;;21.36;41.03
13124;BME280;6627;50.920;12.050;2023-03-14T12:59:28;96483.25;;;21.36;40.73
13124;BME280;6627;50.920;12.050;2023-03-14T13:02:01;96397.28;;;20.76;41.30
13124;BME280;6627;50.920;12.050;2023-03-14T13:04:35;96580.97;;;21.84;40.98
13124;BME280;6627;50.920;12.050;2023-03-14T13:07:04;96525.72;;;21.55;41.27
13124;BME280;6627;50.920;12.050;2023-03-14T13:10:02;96666.34;;;22.73;40.01
13124;BME280;6627;50.920;12.050;2023-03-14T13:12:38;96561.50;;;22.08;39.80
13124;BME280;6627;50.920;12.050;2023-03-14T13:15:26;96638.06;;;22.69;39.30
13124;BME280;6627;50.920;12.050;2023-03-14T13:17:59;96522.16;;;21.75;40.74
13124;BME280;6627;50.920;12.050;2023-03-14T13:20:32;96465.38;;;21.45;40.93